sensor_id;sensor_type;location;lat;lon;timestamp;temperature;humidity
72919;SHT30;61063;55.700;26.994;2022-09-09T00:03:46;6.9;83.9
72919;SHT30;61063;55.700;26.994;2022-09-09T00:09:08;7.1;83.3
72919;SHT30;61063;55.700;26.994;2022-09-09T00:13:55;7.1;82.5
72919;SHT30;61063;55.700;26.994;2022-09-09T00:23:46;7.2;83
72919;SHT30;61063;55.700;26.994;2022-09-09T00:28:45;7.2;82.3
72919;SHT30;61063;55.700;26.994;2022-09-09T00:34:09;7.1;80.8
72919;SHT30;61063;55.700;26.994;2022-09-09T00:38:34;6.8;80.5
72919;SHT30;61063;55.700;26.994;2022-09-09T00:43:46;6.7;81.5
72919;SHT30;61063;55.700;26.994;2022-09-09T00:49:13;6.6;81.7
72919;SHT30;61063;55.700;26.994;2022-09-09T00:54:12;6.6;81
72919;SHT30;61063;55.700;26.994;2022-09-09T00:58:57;6.1;79.8
72919;SHT30;61063;55.700;26.994;2022-09-09T01:03:43;5.6;80.6
72919;SHT30;61063;55.700;26.994;2022-09-09T01:14:40;5.2;80.8
72919;SHT30;61063;55.700;26.994;2022-09-09T01:18:39;5.1;82.1
72919;SHT30;61063;55.700;26.994;2022-09-09T01:23:53;5.1;82.3
72919;SHT30;61063;55.700;26.994;2022-09-09T01:29:06;5;82.4
72919;SHT30;61063;55.700;26.994;2022-09-09T01:33:53;5.2;84.7
72919;SHT30;61063;55.700;26.994;2022-09-09T01:38:47;5.9;86.1
72919;SHT30;61063;55.700;26.994;2022-09-09T01:43:57;6.5;84.8
72919;SHT30;61063;55.700;26.994;2022-09-09T01:48:51;6.8;83.9
72919;SHT30;61063;55.700;26.994;2022-09-09T01:53:41;6.9;83
72919;SHT30;61063;55.700;26.994;2022-09-09T01:58:55;6.9;82.7
72919;SHT30;61063;55.700;26.994;2022-09-09T02:04:03;6.9;82.7
72919;SHT30;61063;55.700;26.994;2022-09-09T02:08:43;6.9;82.7
72919;SHT30;61063;55.700;26.994;2022-09-09T02:13:42;6.9;82.7
72919;SHT30;61063;55.700;26.994;2022-09-09T02:18:40;6.8;82.7
72919;SHT30;61063;55.700;26.994;2022-09-09T02:24:04;6.8;82.8
72919;SHT30;61063;55.700;26.994;2022-09-09T02:29:04;6.8;83.1
72919;SHT30;61063;55.700;26.994;2022-09-09T02:34:03;6.8;83.4
72919;SHT30;61063;55.700;26.994;2022-09-09T02:39:01;6.7;83.1
72919;SHT30;61063;55.700;26.994;2022-09-09T02:44:11;6.7;83.4
72919;SHT30;61063;55.700;26.994;2022-09-09T02:48:47;6.6;83.2
72919;SHT30;61063;55.700;26.994;2022-09-09T02:53:37;6.6;83.1
72919;SHT30;61063;55.700;26.994;2022-09-09T02:58:45;6.5;83.1
72919;SHT30;61063;55.700;26.994;2022-09-09T03:03:35;6.6;83.5
72919;SHT30;61063;55.700;26.994;2022-09-09T03:08:25;6.6;83.3
72919;SHT30;61063;55.700;26.994;2022-09-09T03:13:45;6.5;83.5
72919;SHT30;61063;55.700;26.994;2022-09-09T03:19:03;6.5;83.5
72919;SHT30;61063;55.700;26.994;2022-09-09T03:23:51;6.4;84
72919;SHT30;61063;55.700;26.994;2022-09-09T03:29:04;6.4;84.3
72919;SHT30;61063;55.700;26.994;2022-09-09T03:33:45;6.4;84.4
72919;SHT30;61063;55.700;26.994;2022-09-09T03:38:49;6.3;84.5
72919;SHT30;61063;55.700;26.994;2022-09-09T03:44:03;6.2;84.7
72919;SHT30;61063;55.700;26.994;2022-09-09T03:48:45;6.2;85.1
72919;SHT30;61063;55.700;26.994;2022-09-09T03:54:05;6.2;85.6
72919;SHT30;61063;55.700;26.994;2022-09-09T03:58:23;6.3;85.5
72919;SHT30;61063;55.700;26.994;2022-09-09T04:03:43;6.5;85.6
72919;SHT30;61063;55.700;26.994;2022-09-09T04:08:51;6.6;85.3
72919;SHT30;61063;55.700;26.994;2022-09-09T04:13:28;6.7;85.1
72919;SHT30;61063;55.700;26.994;2022-09-09T04:18:55;6.9;84.9
72919;SHT30;61063;55.700;26.994;2022-09-09T04:23:53;7;84.5
72919;SHT30;61063;55.700;26.994;2022-09-09T04:28:45;7.1;84.4
72919;SHT30;61063;55.700;26.994;2022-09-09T04:33:55;7.2;84.4
72919;SHT30;61063;55.700;26.994;2022-09-09T04:39:07;7.4;83.3
72919;SHT30;61063;55.700;26.994;2022-09-09T04:43:43;7.6;82.8
72919;SHT30;61063;55.700;26.994;2022-09-09T04:48:35;7.8;82.3
72919;SHT30;61063;55.700;26.994;2022-09-09T04:54:05;7.9;81.7
72919;SHT30;61063;55.700;26.994;2022-09-09T04:58:57;8;81.3
72919;SHT30;61063;55.700;26.994;2022-09-09T05:04:09;8.1;80.9
72919;SHT30;61063;55.700;26.994;2022-09-09T05:08:47;8.3;81
72919;SHT30;61063;55.700;26.994;2022-09-09T05:13:57;8.4;81
72919;SHT30;61063;55.700;26.994;2022-09-09T05:19:11;8.6;80.3
72919;SHT30;61063;55.700;26.994;2022-09-09T05:23:47;8.7;79.8
72919;SHT30;61063;55.700;26.994;2022-09-09T05:28:47;8.9;79.4
72919;SHT30;61063;55.700;26.994;2022-09-09T05:34:09;8.9;79.4
72919;SHT30;61063;55.700;26.994;2022-09-09T05:38:37;9.1;78.9
72919;SHT30;61063;55.700;26.994;2022-09-09T05:44:11;9.2;78.7
72919;SHT30;61063;55.700;26.994;2022-09-09T05:48:48;9.4;78.6
72919;SHT30;61063;55.700;26.994;2022-09-09T05:54:09;9.6;77.9
72919;SHT30;61063;55.700;26.994;2022-09-09T05:59:09;9.8;77.6
72919;SHT30;61063;55.700;26.994;2022-09-09T06:04:09;9.9;76.4
72919;SHT30;61063;55.700;26.994;2022-09-09T06:09:08;10;75.8
72919;SHT30;61063;55.700;26.994;2022-09-09T06:14:09;10.1;75.7
72919;SHT30;61063;55.700;26.994;2022-09-09T06:19:09;10.3;74.5
72919;SHT30;61063;55.700;26.994;2022-09-09T06:23:47;10.4;74.3
72919;SHT30;61063;55.700;26.994;2022-09-09T06:29:09;10.6;73.4
72919;SHT30;61063;55.700;26.994;2022-09-09T06:34:10;10.9;73.2
72919;SHT30;61063;55.700;26.994;2022-09-09T06:38:57;11.2;72.9
72919;SHT30;61063;55.700;26.994;2022-09-09T06:43:47;11.5;72.1
72919;SHT30;61063;55.700;26.994;2022-09-09T06:48:59;11.8;71.7
72919;SHT30;61063;55.700;26.994;2022-09-09T06:54:00;12;70.8
72919;SHT30;61063;55.700;26.994;2022-09-09T06:58:47;12.2;69.5
72919;SHT30;61063;55.700;26.994;2022-09-09T07:03:58;12.3;68.5
72919;SHT30;61063;55.700;26.994;2022-09-09T07:09:11;12.5;67.7
72919;SHT30;61063;55.700;26.994;2022-09-09T07:13:37;12.6;68
72919;SHT30;61063;55.700;26.994;2022-09-09T07:18:38;12.8;67.3
72919;SHT30;61063;55.700;26.994;2022-09-09T07:24:11;13;65.5
72919;SHT30;61063;55.700;26.994;2022-09-09T07:29:02;13.1;65.9
72919;SHT30;61063;55.700;26.994;2022-09-09T07:34:13;13.3;65.3
72919;SHT30;61063;55.700;26.994;2022-09-09T07:38:49;13.4;64
72919;SHT30;61063;55.700;26.994;2022-09-09T07:44:00;13.6;65
72919;SHT30;61063;55.700;26.994;2022-09-09T07:49:14;13.6;63.7
72919;SHT30;61063;55.700;26.994;2022-09-09T07:53:48;13.6;63.4
72919;SHT30;61063;55.700;26.994;2022-09-09T07:58:47;13.4;62.9
72919;SHT30;61063;55.700;26.994;2022-09-09T08:04:14;13.6;63.6
72919;SHT30;61063;55.700;26.994;2022-09-09T08:08:37;13.9;62.2
72919;SHT30;61063;55.700;26.994;2022-09-09T08:13:50;14.2;62.6
72919;SHT30;61063;55.700;26.994;2022-09-09T08:18:38;14.4;61.3
72919;SHT30;61063;55.700;26.994;2022-09-09T08:24:12;14.3;59.9
72919;SHT30;61063;55.700;26.994;2022-09-09T08:29:10;14.4;59.3
72919;SHT30;61063;55.700;26.994;2022-09-09T08:33:48;14.6;59.3
72919;SHT30;61063;55.700;26.994;2022-09-09T08:38:47;14.8;58.4
72919;SHT30;61063;55.700;26.994;2022-09-09T08:44:09;14.8;57.9
72919;SHT30;61063;55.700;26.994;2022-09-09T08:49:21;14.9;57.4
72919;SHT30;61063;55.700;26.994;2022-09-09T08:53:39;15.1;56.9
72919;SHT30;61063;55.700;26.994;2022-09-09T08:58:43;15.2;56.2
72919;SHT30;61063;55.700;26.994;2022-09-09T09:03:48;15.3;56
72919;SHT30;61063;55.700;26.994;2022-09-09T09:09:02;15.3;55.8
72919;SHT30;61063;55.700;26.994;2022-09-09T09:13:53;15.5;55
72919;SHT30;61063;55.700;26.994;2022-09-09T09:19:01;15.6;54.5
72919;SHT30;61063;55.700;26.994;2022-09-09T09:23:56;15.7;54.7
72919;SHT30;61063;55.700;26.994;2022-09-09T09:28:58;15.8;54.3
72919;SHT30;61063;55.700;26.994;2022-09-09T09:34:13;16.1;55.3
72919;SHT30;61063;55.700;26.994;2022-09-09T09:39:09;16.3;53.7
72919;SHT30;61063;55.700;26.994;2022-09-09T09:43:39;16.4;53.5
72919;SHT30;61063;55.700;26.994;2022-09-09T09:49:11;16.3;54
72919;SHT30;61063;55.700;26.994;2022-09-09T09:53:36;16.5;53.5
72919;SHT30;61063;55.700;26.994;2022-09-09T09:59:41;16.4;53.1
72919;SHT30;61063;55.700;26.994;2022-09-09T10:04:25;16.4;53.9
72919;SHT30;61063;55.700;26.994;2022-09-09T10:08:45;16.6;53.7
72919;SHT30;61063;55.700;26.994;2022-09-09T10:19:46;16.9;52.6
72919;SHT30;61063;55.700;26.994;2022-09-09T10:28:51;17.2;52
72919;SHT30;61063;55.700;26.994;2022-09-09T10:33:33;17.3;52.1
72919;SHT30;61063;55.700;26.994;2022-09-09T10:38:39;17.2;50.9
72919;SHT30;61063;55.700;26.994;2022-09-09T10:43:53;17.1;52
72919;SHT30;61063;55.700;26.994;2022-09-09T10:48:55;17.3;50.9
72919;SHT30;61063;55.700;26.994;2022-09-09T10:54:13;17.5;50.8
72919;SHT30;61063;55.700;26.994;2022-09-09T10:58:59;17.4;50.6
72919;SHT30;61063;55.700;26.994;2022-09-09T11:04:29;17.6;49.7
72919;SHT30;61063;55.700;26.994;2022-09-09T11:09:02;17.7;50.2
72919;SHT30;61063;55.700;26.994;2022-09-09T11:14:02;17.7;49.9
72919;SHT30;61063;55.700;26.994;2022-09-09T11:19:40;17.8;50.5
72919;SHT30;61063;55.700;26.994;2022-09-09T11:24:42;18;49.5
72919;SHT30;61063;55.700;26.994;2022-09-09T11:28:41;17.9;49.8
72919;SHT30;61063;55.700;26.994;2022-09-09T11:39:02;17.8;49.1
72919;SHT30;61063;55.700;26.994;2022-09-09T11:43:49;17.8;50
72919;SHT30;61063;55.700;26.994;2022-09-09T11:48:59;17.7;49.9
72919;SHT30;61063;55.700;26.994;2022-09-09T11:53:58;17.9;49.4
72919;SHT30;61063;55.700;26.994;2022-09-09T11:58:56;18;49.3
72919;SHT30;61063;55.700;26.994;2022-09-09T12:04:14;18.1;49
72919;SHT30;61063;55.700;26.994;2022-09-09T12:09:17;18.1;48.5
72919;SHT30;61063;55.700;26.994;2022-09-09T12:14:18;17.9;49.8
72919;SHT30;61063;55.700;26.994;2022-09-09T12:18:36;18.1;48.9
72919;SHT30;61063;55.700;26.994;2022-09-09T12:23:40;18.2;49.8
72919;SHT30;61063;55.700;26.994;2022-09-09T12:34:32;18.1;48.7
72919;SHT30;61063;55.700;26.994;2022-09-09T12:38:43;18.1;49.8
72919;SHT30;61063;55.700;26.994;2022-09-09T12:44:09;18.1;49.1
72919;SHT30;61063;55.700;26.994;2022-09-09T12:48:57;18.2;49.2
72919;SHT30;61063;55.700;26.994;2022-09-09T12:53:45;18.2;49.2
72919;SHT30;61063;55.700;26.994;2022-09-09T12:58:46;18.3;49
72919;SHT30;61063;55.700;26.994;2022-09-09T13:03:45;18.3;49.2
72919;SHT30;61063;55.700;26.994;2022-09-09T13:09:09;18.2;49.3
72919;SHT30;61063;55.700;26.994;2022-09-09T13:13:27;17.7;50.1
72919;SHT30;61063;55.700;26.994;2022-09-09T13:18:47;17.6;50.1
72919;SHT30;61063;55.700;26.994;2022-09-09T13:23:50;17.4;50.5
72919;SHT30;61063;55.700;26.994;2022-09-09T13:29:16;17.6;51.7
72919;SHT30;61063;55.700;26.994;2022-09-09T13:34:12;17.6;50.3
72919;SHT30;61063;55.700;26.994;2022-09-09T13:38:54;17.5;50.7
72919;SHT30;61063;55.700;26.994;2022-09-09T13:44:17;17.6;51.1
72919;SHT30;61063;55.700;26.994;2022-09-09T13:54:09;17.7;51.3
72919;SHT30;61063;55.700;26.994;2022-09-09T13:58:49;17.7;50.7
72919;SHT30;61063;55.700;26.994;2022-09-09T14:04:12;17.4;50.7
72919;SHT30;61063;55.700;26.994;2022-09-09T14:09:13;17.3;51.6
72919;SHT30;61063;55.700;26.994;2022-09-09T14:14:12;17.3;50.7
72919;SHT30;61063;55.700;26.994;2022-09-09T14:18:52;17.4;49.9
72919;SHT30;61063;55.700;26.994;2022-09-09T14:24:02;17.5;49.5
72919;SHT30;61063;55.700;26.994;2022-09-09T14:28:56;17.6;49.3
72919;SHT30;61063;55.700;26.994;2022-09-09T14:34:10;17.8;49.8
72919;SHT30;61063;55.700;26.994;2022-09-09T14:39:00;17.9;49.4
72919;SHT30;61063;55.700;26.994;2022-09-09T14:44:10;17.9;48.7
72919;SHT30;61063;55.700;26.994;2022-09-09T14:48:38;17.8;48.7
72919;SHT30;61063;55.700;26.994;2022-09-09T14:53:38;17.7;49.2
72919;SHT30;61063;55.700;26.994;2022-09-09T14:59:10;17.2;49.6
72919;SHT30;61063;55.700;26.994;2022-09-09T15:03:50;16.9;50.7
72919;SHT30;61063;55.700;26.994;2022-09-09T15:09:08;16.7;52.2
72919;SHT30;61063;55.700;26.994;2022-09-09T15:13:44;16.4;51.7
72919;SHT30;61063;55.700;26.994;2022-09-09T15:19:00;16.2;52.4
72919;SHT30;61063;55.700;26.994;2022-09-09T15:24:10;16;52.5
72919;SHT30;61063;55.700;26.994;2022-09-09T15:28:48;15.7;54.6
72919;SHT30;61063;55.700;26.994;2022-09-09T15:33:51;15.7;55.8
72919;SHT30;61063;55.700;26.994;2022-09-09T15:39:13;15.5;56.6
72919;SHT30;61063;55.700;26.994;2022-09-09T15:43:46;15.6;55.9
72919;SHT30;61063;55.700;26.994;2022-09-09T15:48:52;15.9;54.9
72919;SHT30;61063;55.700;26.994;2022-09-09T15:53:38;16.2;55.1
72919;SHT30;61063;55.700;26.994;2022-09-09T15:59:14;16.2;54.7
72919;SHT30;61063;55.700;26.994;2022-09-09T16:04:14;16.3;54.8
72919;SHT30;61063;55.700;26.994;2022-09-09T16:08:46;16;55.9
72919;SHT30;61063;55.700;26.994;2022-09-09T16:14:12;15.7;56.8
72919;SHT30;61063;55.700;26.994;2022-09-09T16:19:14;15.8;56.6
72919;SHT30;61063;55.700;26.994;2022-09-09T16:24:13;15.5;57.1
72919;SHT30;61063;55.700;26.994;2022-09-09T16:29:12;15.1;58.2
72919;SHT30;61063;55.700;26.994;2022-09-09T16:34:10;14.9;59.8
72919;SHT30;61063;55.700;26.994;2022-09-09T16:39:13;14.6;60.5
72919;SHT30;61063;55.700;26.994;2022-09-09T16:44:03;14.3;61.1
72919;SHT30;61063;55.700;26.994;2022-09-09T16:48:36;14.1;61.7
72919;SHT30;61063;55.700;26.994;2022-09-09T16:54:12;13.8;62.4
72919;SHT30;61063;55.700;26.994;2022-09-09T16:58:57;13.6;63.3
72919;SHT30;61063;55.700;26.994;2022-09-09T17:03:38;13.4;64
72919;SHT30;61063;55.700;26.994;2022-09-09T17:09:00;13.2;65.3
72919;SHT30;61063;55.700;26.994;2022-09-09T17:14:15;13;66.2
72919;SHT30;61063;55.700;26.994;2022-09-09T17:18:38;12.9;66.2
72919;SHT30;61063;55.700;26.994;2022-09-09T17:24:14;12.8;66.7
72919;SHT30;61063;55.700;26.994;2022-09-09T17:29:12;12.6;67.5
72919;SHT30;61063;55.700;26.994;2022-09-09T17:34:12;12.5;68.3
72919;SHT30;61063;55.700;26.994;2022-09-09T17:39:12;12.3;69.1
72919;SHT30;61063;55.700;26.994;2022-09-09T17:43:36;12.1;70.1
72919;SHT30;61063;55.700;26.994;2022-09-09T17:49:14;11.8;71.1
72919;SHT30;61063;55.700;26.994;2022-09-09T17:54:01;11.8;71.7
72919;SHT30;61063;55.700;26.994;2022-09-09T17:58:48;11.8;71.7
72919;SHT30;61063;55.700;26.994;2022-09-09T18:03:38;11.7;71.4
72919;SHT30;61063;55.700;26.994;2022-09-09T18:08:39;11.8;70.7
72919;SHT30;61063;55.700;26.994;2022-09-09T18:13:47;11.9;70.3
72919;SHT30;61063;55.700;26.994;2022-09-09T18:18:38;11.9;70.3
72919;SHT30;61063;55.700;26.994;2022-09-09T18:24:04;11.9;70.3
72919;SHT30;61063;55.700;26.994;2022-09-09T18:29:15;11.9;70.7
72919;SHT30;61063;55.700;26.994;2022-09-09T18:33:58;11.8;70.6
72919;SHT30;61063;55.700;26.994;2022-09-09T18:38:55;11.8;70.7
72919;SHT30;61063;55.700;26.994;2022-09-09T18:43:46;11.8;70.5
72919;SHT30;61063;55.700;26.994;2022-09-09T18:48:56;11.8;70.8
72919;SHT30;61063;55.700;26.994;2022-09-09T18:54:13;11.7;70.9
72919;SHT30;61063;55.700;26.994;2022-09-09T18:58:36;11.7;70.9
72919;SHT30;61063;55.700;26.994;2022-09-09T19:03:58;11.6;70.9
72919;SHT30;61063;55.700;26.994;2022-09-09T19:08:36;11.6;71.2
72919;SHT30;61063;55.700;26.994;2022-09-09T19:14:02;11.6;71
72919;SHT30;61063;55.700;26.994;2022-09-09T19:19:11;11.5;71.1
72919;SHT30;61063;55.700;26.994;2022-09-09T19:24:01;11.4;71.5
72919;SHT30;61063;55.700;26.994;2022-09-09T19:28:57;11.1;71.9
72919;SHT30;61063;55.700;26.994;2022-09-09T19:33:56;10.9;72.5
72919;SHT30;61063;55.700;26.994;2022-09-09T19:38:58;10.6;72.7
72919;SHT30;61063;55.700;26.994;2022-09-09T19:44:11;10.2;73.5
72919;SHT30;61063;55.700;26.994;2022-09-09T19:49:08;10;74.3
72919;SHT30;61063;55.700;26.994;2022-09-09T19:53:47;9.9;74.8
72919;SHT30;61063;55.700;26.994;2022-09-09T19:58:50;9.9;74.9
72919;SHT30;61063;55.700;26.994;2022-09-09T20:04:00;10;74.8
72919;SHT30;61063;55.700;26.994;2022-09-09T20:09:12;10.1;74.8
72919;SHT30;61063;55.700;26.994;2022-09-09T20:13:44;10.2;74.8
72919;SHT30;61063;55.700;26.994;2022-09-09T20:19:13;10.3;74.5
72919;SHT30;61063;55.700;26.994;2022-09-09T20:24:03;10.2;74.2
72919;SHT30;61063;55.700;26.994;2022-09-09T20:28:46;10.1;74
72919;SHT30;61063;55.700;26.994;2022-09-09T20:33:52;9.9;73.9
72919;SHT30;61063;55.700;26.994;2022-09-09T20:39:16;9.7;74.1
72919;SHT30;61063;55.700;26.994;2022-09-09T20:43:44;9.6;73.9
72919;SHT30;61063;55.700;26.994;2022-09-09T20:48:37;9.4;74
72919;SHT30;61063;55.700;26.994;2022-09-09T20:53:53;9.3;74.2
72919;SHT30;61063;55.700;26.994;2022-09-09T20:59:15;9.1;74.4
72919;SHT30;61063;55.700;26.994;2022-09-09T21:03:50;8.9;74.7
72919;SHT30;61063;55.700;26.994;2022-09-09T21:09:08;8.7;74.8
72919;SHT30;61063;55.700;26.994;2022-09-09T21:13:44;8.6;74.9
72919;SHT30;61063;55.700;26.994;2022-09-09T21:18:54;8.5;75
72919;SHT30;61063;55.700;26.994;2022-09-09T21:24:12;8.4;74.9
72919;SHT30;61063;55.700;26.994;2022-09-09T21:29:00;8.4;74.8
72919;SHT30;61063;55.700;26.994;2022-09-09T21:34:12;8.5;74.5
72919;SHT30;61063;55.700;26.994;2022-09-09T21:39:12;8.5;74.4
72919;SHT30;61063;55.700;26.994;2022-09-09T21:44:02;8.5;74.2
72919;SHT30;61063;55.700;26.994;2022-09-09T21:48:52;8.3;74.5
72919;SHT30;61063;55.700;26.994;2022-09-09T21:53:58;8.3;74.5
72919;SHT30;61063;55.700;26.994;2022-09-09T21:58:56;8.4;74.3
72919;SHT30;61063;55.700;26.994;2022-09-09T22:03:56;8.5;74.1
72919;SHT30;61063;55.700;26.994;2022-09-09T22:08:48;8.5;73.9
72919;SHT30;61063;55.700;26.994;2022-09-09T22:14:02;8.4;74
72919;SHT30;61063;55.700;26.994;2022-09-09T22:19:12;8.4;74.3
72919;SHT30;61063;55.700;26.994;2022-09-09T22:24:12;8.5;74.4
72919;SHT30;61063;55.700;26.994;2022-09-09T22:28:46;8.6;73.8
72919;SHT30;61063;55.700;26.994;2022-09-09T22:34:04;8.7;73.6
72919;SHT30;61063;55.700;26.994;2022-09-09T22:39:00;8.7;73.5
72919;SHT30;61063;55.700;26.994;2022-09-09T22:44:10;8.7;73.3
72919;SHT30;61063;55.700;26.994;2022-09-09T22:48:46;8.7;73
72919;SHT30;61063;55.700;26.994;2022-09-09T22:53:44;8.7;72.9
72919;SHT30;61063;55.700;26.994;2022-09-09T22:59:10;8.4;73.4
72919;SHT30;61063;55.700;26.994;2022-09-09T23:04:10;8.2;73.9
72919;SHT30;61063;55.700;26.994;2022-09-09T23:08:48;8;74.4
72919;SHT30;61063;55.700;26.994;2022-09-09T23:14:10;7.9;74.9
72919;SHT30;61063;55.700;26.994;2022-09-09T23:18:28;7.9;75.3
72919;SHT30;61063;55.700;26.994;2022-09-09T23:23:52;7.9;75.2
72919;SHT30;61063;55.700;26.994;2022-09-09T23:28:52;7.9;75.5
72919;SHT30;61063;55.700;26.994;2022-09-09T23:34:02;8;75.8
72919;SHT30;61063;55.700;26.994;2022-09-09T23:39:10;8.1;75.5
72919;SHT30;61063;55.700;26.994;2022-09-09T23:43:56;8.2;75.3
72919;SHT30;61063;55.700;26.994;2022-09-09T23:49:00;8.2;75.1
72919;SHT30;61063;55.700;26.994;2022-09-09T23:54:12;8.2;75.1
72919;SHT30;61063;55.700;26.994;2022-09-09T23:59:12;8.2;75
